sensor_id;sensor_type;location;lat;lon;timestamp;P1;P2;P0
57289;PMS5003;43523;53.022;-1.178;2022-09-09T00:00:21;4;3;
57289;PMS5003;43523;53.022;-1.178;2022-09-09T00:01:26;5;3;
57289;PMS5003;43523;53.022;-1.178;2022-09-09T00:02:35;5;4;
57289;PMS5003;43523;53.022;-1.178;2022-09-09T00:03:39;4;4;
57289;PMS5003;43523;53.022;-1.178;2022-09-09T00:04:46;3;3;
57289;PMS5003;43523;53.022;-1.178;2022-09-09T00:05:58;7;6;
57289;PMS5003;43523;53.022;-1.178;2022-09-09T00:07:07;6;5;
57289;PMS5003;43523;53.022;-1.178;2022-09-09T00:08:18;2;2;
57289;PMS5003;43523;53.022;-1.178;2022-09-09T00:09:24;3;3;
57289;PMS5003;43523;53.022;-1.178;2022-09-09T00:10:30;5;4;
57289;PMS5003;43523;53.022;-1.178;2022-09-09T00:11:38;5;4;
57289;PMS5003;43523;53.022;-1.178;2022-09-09T00:12:47;5;5;
57289;PMS5003;43523;53.022;-1.178;2022-09-09T00:13:56;4;3;
57289;PMS5003;43523;53.022;-1.178;2022-09-09T00:15:03;3;2;
57289;PMS5003;43523;53.022;-1.178;2022-09-09T00:16:15;3;1;
57289;PMS5003;43523;53.022;-1.178;2022-09-09T00:17:25;3;3;
57289;PMS5003;43523;53.022;-1.178;2022-09-09T00:18:37;6;5;
57289;PMS5003;43523;53.022;-1.178;2022-09-09T00:19:44;4;3;
57289;PMS5003;43523;53.022;-1.178;2022-09-09T00:20:53;5;4;
57289;PMS5003;43523;53.022;-1.178;2022-09-09T00:22:06;5;5;
57289;PMS5003;43523;53.022;-1.178;2022-09-09T00:23:17;7;5;
57289;PMS5003;43523;53.022;-1.178;2022-09-09T00:24:26;6;4;
57289;PMS5003;43523;53.022;-1.178;2022-09-09T00:25:34;5;4;
57289;PMS5003;43523;53.022;-1.178;2022-09-09T00:26:45;3;3;
57289;PMS5003;43523;53.022;-1.178;2022-09-09T00:27:53;4;4;
57289;PMS5003;43523;53.022;-1.178;2022-09-09T00:28:58;3;3;
57289;PMS5003;43523;53.022;-1.178;2022-09-09T00:30:13;4;4;
57289;PMS5003;43523;53.022;-1.178;2022-09-09T00:31:18;4;4;
57289;PMS5003;43523;53.022;-1.178;2022-09-09T00:32:27;5;5;
57289;PMS5003;43523;53.022;-1.178;2022-09-09T00:33:31;4;4;
57289;PMS5003;43523;53.022;-1.178;2022-09-09T00:34:33;4;4;
57289;PMS5003;43523;53.022;-1.178;2022-09-09T00:35:38;3;3;
57289;PMS5003;43523;53.022;-1.178;2022-09-09T00:36:43;4;4;
57289;PMS5003;43523;53.022;-1.178;2022-09-09T00:37:47;8;4;
57289;PMS5003;43523;53.022;-1.178;2022-09-09T00:38:52;5;5;
57289;PMS5003;43523;53.022;-1.178;2022-09-09T00:40:01;4;4;
57289;PMS5003;43523;53.022;-1.178;2022-09-09T00:41:10;5;4;
57289;PMS5003;43523;53.022;-1.178;2022-09-09T00:42:23;4;4;
57289;PMS5003;43523;53.022;-1.178;2022-09-09T00:43:28;4;4;
57289;PMS5003;43523;53.022;-1.178;2022-09-09T00:44:33;6;5;
57289;PMS5003;43523;53.022;-1.178;2022-09-09T00:45:45;3;2;
57289;PMS5003;43523;53.022;-1.178;2022-09-09T00:47:04;5;5;
57289;PMS5003;43523;53.022;-1.178;2022-09-09T00:48:22;2;2;
57289;PMS5003;43523;53.022;-1.178;2022-09-09T00:49:37;5;5;
57289;PMS5003;43523;53.022;-1.178;2022-09-09T00:50:49;4;4;
57289;PMS5003;43523;53.022;-1.178;2022-09-09T00:51:58;4;4;
57289;PMS5003;43523;53.022;-1.178;2022-09-09T00:53:14;4;4;
57289;PMS5003;43523;53.022;-1.178;2022-09-09T00:54:31;7;6;
57289;PMS5003;43523;53.022;-1.178;2022-09-09T00:55:41;8;5;
57289;PMS5003;43523;53.022;-1.178;2022-09-09T00:56:53;6;5;
57289;PMS5003;43523;53.022;-1.178;2022-09-09T00:58:06;8;7;
57289;PMS5003;43523;53.022;-1.178;2022-09-09T00:59:16;4;4;
57289;PMS5003;43523;53.022;-1.178;2022-09-09T01:00:30;5;4;
57289;PMS5003;43523;53.022;-1.178;2022-09-09T01:01:37;5;5;
57289;PMS5003;43523;53.022;-1.178;2022-09-09T01:02:41;6;5;
57289;PMS5003;43523;53.022;-1.178;2022-09-09T01:03:53;6;4;
57289;PMS5003;43523;53.022;-1.178;2022-09-09T01:04:58;5;5;
57289;PMS5003;43523;53.022;-1.178;2022-09-09T01:06:14;5;3;
57289;PMS5003;43523;53.022;-1.178;2022-09-09T01:07:21;6;6;
57289;PMS5003;43523;53.022;-1.178;2022-09-09T01:08:30;9;7;
57289;PMS5003;43523;53.022;-1.178;2022-09-09T01:09:45;6;6;
57289;PMS5003;43523;53.022;-1.178;2022-09-09T01:10:55;8;7;
57289;PMS5003;43523;53.022;-1.178;2022-09-09T01:12:01;10;10;
57289;PMS5003;43523;53.022;-1.178;2022-09-09T01:13:13;12;10;
57289;PMS5003;43523;53.022;-1.178;2022-09-09T01:14:37;14;13;
57289;PMS5003;43523;53.022;-1.178;2022-09-09T01:15:44;14;12;
57289;PMS5003;43523;53.022;-1.178;2022-09-09T01:16:47;14;11;
57289;PMS5003;43523;53.022;-1.178;2022-09-09T01:17:52;14;14;
57289;PMS5003;43523;53.022;-1.178;2022-09-09T01:18:59;13;11;
57289;PMS5003;43523;53.022;-1.178;2022-09-09T01:20:06;13;12;
57289;PMS5003;43523;53.022;-1.178;2022-09-09T01:21:16;10;9;
57289;PMS5003;43523;53.022;-1.178;2022-09-09T01:22:28;15;15;
57289;PMS5003;43523;53.022;-1.178;2022-09-09T01:23:45;12;12;
57289;PMS5003;43523;53.022;-1.178;2022-09-09T01:25:22;14;11;
57289;PMS5003;43523;53.022;-1.178;2022-09-09T01:26:32;14;10;
57289;PMS5003;43523;53.022;-1.178;2022-09-09T01:27:36;12;11;
57289;PMS5003;43523;53.022;-1.178;2022-09-09T01:28:40;21;12;
57289;PMS5003;43523;53.022;-1.178;2022-09-09T01:29:47;13;10;
57289;PMS5003;43523;53.022;-1.178;2022-09-09T01:30:49;15;11;
57289;PMS5003;43523;53.022;-1.178;2022-09-09T01:31:52;14;13;
57289;PMS5003;43523;53.022;-1.178;2022-09-09T01:32:58;13;11;
57289;PMS5003;43523;53.022;-1.178;2022-09-09T01:34:00;16;12;
57289;PMS5003;43523;53.022;-1.178;2022-09-09T01:35:03;16;11;
57289;PMS5003;43523;53.022;-1.178;2022-09-09T01:36:10;10;10;
57289;PMS5003;43523;53.022;-1.178;2022-09-09T01:37:17;13;11;
57289;PMS5003;43523;53.022;-1.178;2022-09-09T01:38:19;10;8;
57289;PMS5003;43523;53.022;-1.178;2022-09-09T01:39:23;18;14;
57289;PMS5003;43523;53.022;-1.178;2022-09-09T01:40:25;19;14;
57289;PMS5003;43523;53.022;-1.178;2022-09-09T01:41:28;13;12;
57289;PMS5003;43523;53.022;-1.178;2022-09-09T01:42:30;13;10;
57289;PMS5003;43523;53.022;-1.178;2022-09-09T01:43:32;21;21;
57289;PMS5003;43523;53.022;-1.178;2022-09-09T01:44:34;22;18;
57289;PMS5003;43523;53.022;-1.178;2022-09-09T01:45:39;19;15;
57289;PMS5003;43523;53.022;-1.178;2022-09-09T01:46:44;24;18;
57289;PMS5003;43523;53.022;-1.178;2022-09-09T01:47:46;24;23;
57289;PMS5003;43523;53.022;-1.178;2022-09-09T01:48:50;24;20;
57289;PMS5003;43523;53.022;-1.178;2022-09-09T01:49:54;25;20;
57289;PMS5003;43523;53.022;-1.178;2022-09-09T01:50:56;29;20;
57289;PMS5003;43523;53.022;-1.178;2022-09-09T01:51:59;21;20;
57289;PMS5003;43523;53.022;-1.178;2022-09-09T01:53:02;21;19;
57289;PMS5003;43523;53.022;-1.178;2022-09-09T01:54:05;21;16;
57289;PMS5003;43523;53.022;-1.178;2022-09-09T01:55:09;19;17;
57289;PMS5003;43523;53.022;-1.178;2022-09-09T01:56:15;19;17;
57289;PMS5003;43523;53.022;-1.178;2022-09-09T01:57:30;15;15;
57289;PMS5003;43523;53.022;-1.178;2022-09-09T01:58:40;19;16;
57289;PMS5003;43523;53.022;-1.178;2022-09-09T01:59:59;17;15;
57289;PMS5003;43523;53.022;-1.178;2022-09-09T02:01:06;17;15;
57289;PMS5003;43523;53.022;-1.178;2022-09-09T02:02:16;19;15;
57289;PMS5003;43523;53.022;-1.178;2022-09-09T02:03:20;22;18;
57289;PMS5003;43523;53.022;-1.178;2022-09-09T02:04:30;19;16;
57289;PMS5003;43523;53.022;-1.178;2022-09-09T02:05:40;14;11;
57289;PMS5003;43523;53.022;-1.178;2022-09-09T02:06:46;19;14;
57289;PMS5003;43523;53.022;-1.178;2022-09-09T02:07:55;16;12;
57289;PMS5003;43523;53.022;-1.178;2022-09-09T02:09:03;22;16;
57289;PMS5003;43523;53.022;-1.178;2022-09-09T02:10:10;18;17;
57289;PMS5003;43523;53.022;-1.178;2022-09-09T02:11:18;15;14;
57289;PMS5003;43523;53.022;-1.178;2022-09-09T02:12:22;18;16;
57289;PMS5003;43523;53.022;-1.178;2022-09-09T02:13:27;14;14;
57289;PMS5003;43523;53.022;-1.178;2022-09-09T02:14:34;15;14;
57289;PMS5003;43523;53.022;-1.178;2022-09-09T02:15:42;20;17;
57289;PMS5003;43523;53.022;-1.178;2022-09-09T02:16:51;17;15;
57289;PMS5003;43523;53.022;-1.178;2022-09-09T02:17:57;12;12;
57289;PMS5003;43523;53.022;-1.178;2022-09-09T02:19:03;14;14;
57289;PMS5003;43523;53.022;-1.178;2022-09-09T02:20:12;17;12;
57289;PMS5003;43523;53.022;-1.178;2022-09-09T02:21:16;19;14;
57289;PMS5003;43523;53.022;-1.178;2022-09-09T02:22:19;16;16;
57289;PMS5003;43523;53.022;-1.178;2022-09-09T02:23:25;19;17;
57289;PMS5003;43523;53.022;-1.178;2022-09-09T02:24:27;21;15;
57289;PMS5003;43523;53.022;-1.178;2022-09-09T02:25:34;19;17;
57289;PMS5003;43523;53.022;-1.178;2022-09-09T02:26:39;24;20;
57289;PMS5003;43523;53.022;-1.178;2022-09-09T02:27:43;20;16;
57289;PMS5003;43523;53.022;-1.178;2022-09-09T02:28:47;25;19;
57289;PMS5003;43523;53.022;-1.178;2022-09-09T02:29:51;23;20;
57289;PMS5003;43523;53.022;-1.178;2022-09-09T02:30:56;21;17;
57289;PMS5003;43523;53.022;-1.178;2022-09-09T02:31:59;26;22;
57289;PMS5003;43523;53.022;-1.178;2022-09-09T02:33:05;27;18;
57289;PMS5003;43523;53.022;-1.178;2022-09-09T02:34:09;23;20;
57289;PMS5003;43523;53.022;-1.178;2022-09-09T02:35:16;25;21;
57289;PMS5003;43523;53.022;-1.178;2022-09-09T02:36:21;20;18;
57289;PMS5003;43523;53.022;-1.178;2022-09-09T02:37:29;19;13;
57289;PMS5003;43523;53.022;-1.178;2022-09-09T02:38:38;25;18;
57289;PMS5003;43523;53.022;-1.178;2022-09-09T02:39:46;16;14;
57289;PMS5003;43523;53.022;-1.178;2022-09-09T02:40:49;22;18;
57289;PMS5003;43523;53.022;-1.178;2022-09-09T02:41:51;14;13;
57289;PMS5003;43523;53.022;-1.178;2022-09-09T02:42:54;18;16;
57289;PMS5003;43523;53.022;-1.178;2022-09-09T02:43:57;29;22;
57289;PMS5003;43523;53.022;-1.178;2022-09-09T02:44:59;19;19;
57289;PMS5003;43523;53.022;-1.178;2022-09-09T02:46:03;26;21;
57289;PMS5003;43523;53.022;-1.178;2022-09-09T02:47:20;23;19;
57289;PMS5003;43523;53.022;-1.178;2022-09-09T02:48:33;19;15;
57289;PMS5003;43523;53.022;-1.178;2022-09-09T02:49:46;26;21;
57289;PMS5003;43523;53.022;-1.178;2022-09-09T02:51:00;27;27;
57289;PMS5003;43523;53.022;-1.178;2022-09-09T02:52:11;29;24;
57289;PMS5003;43523;53.022;-1.178;2022-09-09T02:53:16;25;23;
57289;PMS5003;43523;53.022;-1.178;2022-09-09T02:54:21;29;24;
57289;PMS5003;43523;53.022;-1.178;2022-09-09T02:55:32;29;24;
57289;PMS5003;43523;53.022;-1.178;2022-09-09T02:56:42;34;29;
57289;PMS5003;43523;53.022;-1.178;2022-09-09T02:57:49;23;21;
57289;PMS5003;43523;53.022;-1.178;2022-09-09T02:58:53;22;19;
57289;PMS5003;43523;53.022;-1.178;2022-09-09T02:59:56;19;17;
57289;PMS5003;43523;53.022;-1.178;2022-09-09T03:01:00;25;20;
57289;PMS5003;43523;53.022;-1.178;2022-09-09T03:02:03;29;22;
57289;PMS5003;43523;53.022;-1.178;2022-09-09T03:03:05;28;23;
57289;PMS5003;43523;53.022;-1.178;2022-09-09T03:04:09;29;23;
57289;PMS5003;43523;53.022;-1.178;2022-09-09T03:05:12;32;22;
57289;PMS5003;43523;53.022;-1.178;2022-09-09T03:06:14;27;22;
57289;PMS5003;43523;53.022;-1.178;2022-09-09T03:07:16;26;24;
57289;PMS5003;43523;53.022;-1.178;2022-09-09T03:08:18;28;24;
57289;PMS5003;43523;53.022;-1.178;2022-09-09T03:09:21;24;18;
57289;PMS5003;43523;53.022;-1.178;2022-09-09T03:10:23;28;23;
57289;PMS5003;43523;53.022;-1.178;2022-09-09T03:11:26;26;21;
57289;PMS5003;43523;53.022;-1.178;2022-09-09T03:12:28;23;21;
57289;PMS5003;43523;53.022;-1.178;2022-09-09T03:13:30;35;21;
57289;PMS5003;43523;53.022;-1.178;2022-09-09T03:14:32;31;26;
57289;PMS5003;43523;53.022;-1.178;2022-09-09T03:15:35;20;18;
57289;PMS5003;43523;53.022;-1.178;2022-09-09T03:16:38;25;22;
57289;PMS5003;43523;53.022;-1.178;2022-09-09T03:17:40;23;20;
57289;PMS5003;43523;53.022;-1.178;2022-09-09T03:18:43;21;20;
57289;PMS5003;43523;53.022;-1.178;2022-09-09T03:19:46;23;23;
57289;PMS5003;43523;53.022;-1.178;2022-09-09T03:20:48;34;25;
57289;PMS5003;43523;53.022;-1.178;2022-09-09T03:21:50;34;25;
57289;PMS5003;43523;53.022;-1.178;2022-09-09T03:22:53;22;18;
57289;PMS5003;43523;53.022;-1.178;2022-09-09T03:23:55;31;24;
57289;PMS5003;43523;53.022;-1.178;2022-09-09T03:24:58;28;21;
57289;PMS5003;43523;53.022;-1.178;2022-09-09T03:26:01;32;26;
57289;PMS5003;43523;53.022;-1.178;2022-09-09T03:27:03;23;22;
57289;PMS5003;43523;53.022;-1.178;2022-09-09T03:28:05;17;15;
57289;PMS5003;43523;53.022;-1.178;2022-09-09T03:29:07;33;27;
57289;PMS5003;43523;53.022;-1.178;2022-09-09T03:30:10;25;21;
57289;PMS5003;43523;53.022;-1.178;2022-09-09T03:31:15;25;22;
57289;PMS5003;43523;53.022;-1.178;2022-09-09T03:32:18;22;21;
57289;PMS5003;43523;53.022;-1.178;2022-09-09T03:33:21;24;19;
57289;PMS5003;43523;53.022;-1.178;2022-09-09T03:34:23;25;19;
57289;PMS5003;43523;53.022;-1.178;2022-09-09T03:35:26;28;23;
57289;PMS5003;43523;53.022;-1.178;2022-09-09T03:36:29;28;22;
57289;PMS5003;43523;53.022;-1.178;2022-09-09T03:37:31;24;21;
57289;PMS5003;43523;53.022;-1.178;2022-09-09T03:38:34;27;20;
57289;PMS5003;43523;53.022;-1.178;2022-09-09T03:39:36;28;20;
57289;PMS5003;43523;53.022;-1.178;2022-09-09T03:40:38;18;14;
57289;PMS5003;43523;53.022;-1.178;2022-09-09T03:41:41;23;19;
57289;PMS5003;43523;53.022;-1.178;2022-09-09T03:42:43;27;22;
57289;PMS5003;43523;53.022;-1.178;2022-09-09T03:43:45;28;17;
57289;PMS5003;43523;53.022;-1.178;2022-09-09T03:44:47;26;23;
57289;PMS5003;43523;53.022;-1.178;2022-09-09T03:45:50;28;21;
57289;PMS5003;43523;53.022;-1.178;2022-09-09T03:46:53;23;22;
57289;PMS5003;43523;53.022;-1.178;2022-09-09T03:47:55;26;25;
57289;PMS5003;43523;53.022;-1.178;2022-09-09T03:48:57;25;21;
57289;PMS5003;43523;53.022;-1.178;2022-09-09T03:49:59;20;19;
57289;PMS5003;43523;53.022;-1.178;2022-09-09T03:51:02;25;21;
57289;PMS5003;43523;53.022;-1.178;2022-09-09T03:52:04;22;19;
57289;PMS5003;43523;53.022;-1.178;2022-09-09T03:53:06;20;18;
57289;PMS5003;43523;53.022;-1.178;2022-09-09T03:54:08;29;25;
57289;PMS5003;43523;53.022;-1.178;2022-09-09T03:55:12;18;16;
57289;PMS5003;43523;53.022;-1.178;2022-09-09T03:56:14;32;27;
57289;PMS5003;43523;53.022;-1.178;2022-09-09T03:57:16;25;18;
57289;PMS5003;43523;53.022;-1.178;2022-09-09T03:58:18;23;18;
57289;PMS5003;43523;53.022;-1.178;2022-09-09T03:59:21;20;16;
57289;PMS5003;43523;53.022;-1.178;2022-09-09T04:00:24;20;16;
57289;PMS5003;43523;53.022;-1.178;2022-09-09T04:01:26;30;19;
57289;PMS5003;43523;53.022;-1.178;2022-09-09T04:02:29;24;19;
57289;PMS5003;43523;53.022;-1.178;2022-09-09T04:03:32;26;20;
57289;PMS5003;43523;53.022;-1.178;2022-09-09T04:04:35;20;17;
57289;PMS5003;43523;53.022;-1.178;2022-09-09T04:05:38;24;20;
57289;PMS5003;43523;53.022;-1.178;2022-09-09T04:06:41;24;19;
57289;PMS5003;43523;53.022;-1.178;2022-09-09T04:07:43;18;16;
57289;PMS5003;43523;53.022;-1.178;2022-09-09T04:08:46;20;16;
57289;PMS5003;43523;53.022;-1.178;2022-09-09T04:09:48;18;16;
57289;PMS5003;43523;53.022;-1.178;2022-09-09T04:10:51;17;15;
57289;PMS5003;43523;53.022;-1.178;2022-09-09T04:11:55;24;17;
57289;PMS5003;43523;53.022;-1.178;2022-09-09T04:12:57;22;15;
57289;PMS5003;43523;53.022;-1.178;2022-09-09T04:13:59;32;20;
57289;PMS5003;43523;53.022;-1.178;2022-09-09T04:15:01;18;17;
57289;PMS5003;43523;53.022;-1.178;2022-09-09T04:16:04;16;13;
57289;PMS5003;43523;53.022;-1.178;2022-09-09T04:17:07;18;16;
57289;PMS5003;43523;53.022;-1.178;2022-09-09T04:18:16;18;15;
57289;PMS5003;43523;53.022;-1.178;2022-09-09T04:19:19;22;16;
57289;PMS5003;43523;53.022;-1.178;2022-09-09T04:20:21;19;13;
57289;PMS5003;43523;53.022;-1.178;2022-09-09T04:21:23;15;13;
57289;PMS5003;43523;53.022;-1.178;2022-09-09T04:22:25;13;11;
57289;PMS5003;43523;53.022;-1.178;2022-09-09T04:23:27;15;14;
57289;PMS5003;43523;53.022;-1.178;2022-09-09T04:24:30;19;16;
57289;PMS5003;43523;53.022;-1.178;2022-09-09T04:25:33;21;17;
57289;PMS5003;43523;53.022;-1.178;2022-09-09T04:26:36;23;17;
57289;PMS5003;43523;53.022;-1.178;2022-09-09T04:27:38;32;21;
57289;PMS5003;43523;53.022;-1.178;2022-09-09T04:28:40;23;18;
57289;PMS5003;43523;53.022;-1.178;2022-09-09T04:29:42;27;19;
57289;PMS5003;43523;53.022;-1.178;2022-09-09T04:30:45;20;18;
57289;PMS5003;43523;53.022;-1.178;2022-09-09T04:31:47;22;19;
57289;PMS5003;43523;53.022;-1.178;2022-09-09T04:32:49;27;20;
57289;PMS5003;43523;53.022;-1.178;2022-09-09T04:33:52;24;19;
57289;PMS5003;43523;53.022;-1.178;2022-09-09T04:34:55;22;18;
57289;PMS5003;43523;53.022;-1.178;2022-09-09T04:35:57;19;16;
57289;PMS5003;43523;53.022;-1.178;2022-09-09T04:36:59;25;23;
57289;PMS5003;43523;53.022;-1.178;2022-09-09T04:38:02;23;17;
57289;PMS5003;43523;53.022;-1.178;2022-09-09T04:39:06;24;19;
57289;PMS5003;43523;53.022;-1.178;2022-09-09T04:40:09;23;18;
57289;PMS5003;43523;53.022;-1.178;2022-09-09T04:41:12;27;20;
57289;PMS5003;43523;53.022;-1.178;2022-09-09T04:42:14;22;17;
57289;PMS5003;43523;53.022;-1.178;2022-09-09T04:43:17;27;24;
57289;PMS5003;43523;53.022;-1.178;2022-09-09T04:44:20;25;23;
57289;PMS5003;43523;53.022;-1.178;2022-09-09T04:45:22;22;15;
57289;PMS5003;43523;53.022;-1.178;2022-09-09T04:46:24;22;22;
57289;PMS5003;43523;53.022;-1.178;2022-09-09T04:47:27;22;19;
57289;PMS5003;43523;53.022;-1.178;2022-09-09T04:48:29;28;21;
57289;PMS5003;43523;53.022;-1.178;2022-09-09T04:49:32;26;22;
57289;PMS5003;43523;53.022;-1.178;2022-09-09T04:50:35;21;17;
57289;PMS5003;43523;53.022;-1.178;2022-09-09T04:51:37;17;16;
57289;PMS5003;43523;53.022;-1.178;2022-09-09T04:52:40;23;21;
57289;PMS5003;43523;53.022;-1.178;2022-09-09T04:53:43;21;19;
57289;PMS5003;43523;53.022;-1.178;2022-09-09T04:54:46;30;21;
57289;PMS5003;43523;53.022;-1.178;2022-09-09T04:55:48;24;18;
57289;PMS5003;43523;53.022;-1.178;2022-09-09T04:56:51;16;15;
57289;PMS5003;43523;53.022;-1.178;2022-09-09T04:57:53;27;23;
57289;PMS5003;43523;53.022;-1.178;2022-09-09T04:58:55;30;23;
57289;PMS5003;43523;53.022;-1.178;2022-09-09T04:59:58;28;23;
57289;PMS5003;43523;53.022;-1.178;2022-09-09T05:01:03;24;21;
57289;PMS5003;43523;53.022;-1.178;2022-09-09T05:02:06;28;18;
57289;PMS5003;43523;53.022;-1.178;2022-09-09T05:03:08;29;20;
57289;PMS5003;43523;53.022;-1.178;2022-09-09T05:04:12;26;21;
57289;PMS5003;43523;53.022;-1.178;2022-09-09T05:05:14;34;24;
57289;PMS5003;43523;53.022;-1.178;2022-09-09T05:06:17;32;26;
57289;PMS5003;43523;53.022;-1.178;2022-09-09T05:07:20;30;21;
57289;PMS5003;43523;53.022;-1.178;2022-09-09T05:08:23;35;29;
57289;PMS5003;43523;53.022;-1.178;2022-09-09T05:09:25;34;27;
57289;PMS5003;43523;53.022;-1.178;2022-09-09T05:10:28;39;31;
57289;PMS5003;43523;53.022;-1.178;2022-09-09T05:11:31;33;30;
57289;PMS5003;43523;53.022;-1.178;2022-09-09T05:12:35;36;27;
57289;PMS5003;43523;53.022;-1.178;2022-09-09T05:13:37;36;33;
57289;PMS5003;43523;53.022;-1.178;2022-09-09T05:14:40;36;29;
57289;PMS5003;43523;53.022;-1.178;2022-09-09T05:15:42;35;30;
57289;PMS5003;43523;53.022;-1.178;2022-09-09T05:16:52;30;25;
57289;PMS5003;43523;53.022;-1.178;2022-09-09T05:17:56;38;27;
57289;PMS5003;43523;53.022;-1.178;2022-09-09T05:18:59;39;30;
57289;PMS5003;43523;53.022;-1.178;2022-09-09T05:20:01;37;30;
57289;PMS5003;43523;53.022;-1.178;2022-09-09T05:21:10;37;30;
57289;PMS5003;43523;53.022;-1.178;2022-09-09T05:22:25;34;27;
57289;PMS5003;43523;53.022;-1.178;2022-09-09T05:23:38;42;34;
57289;PMS5003;43523;53.022;-1.178;2022-09-09T05:24:41;47;34;
57289;PMS5003;43523;53.022;-1.178;2022-09-09T05:25:43;36;28;
57289;PMS5003;43523;53.022;-1.178;2022-09-09T05:26:55;34;27;
57289;PMS5003;43523;53.022;-1.178;2022-09-09T05:27:58;43;31;
57289;PMS5003;43523;53.022;-1.178;2022-09-09T05:29:00;35;27;
57289;PMS5003;43523;53.022;-1.178;2022-09-09T05:30:02;36;26;
57289;PMS5003;43523;53.022;-1.178;2022-09-09T05:31:05;31;24;
57289;PMS5003;43523;53.022;-1.178;2022-09-09T05:32:09;36;30;
57289;PMS5003;43523;53.022;-1.178;2022-09-09T05:33:12;35;25;
57289;PMS5003;43523;53.022;-1.178;2022-09-09T05:34:15;50;39;
57289;PMS5003;43523;53.022;-1.178;2022-09-09T05:35:17;31;27;
57289;PMS5003;43523;53.022;-1.178;2022-09-09T05:36:20;30;26;
57289;PMS5003;43523;53.022;-1.178;2022-09-09T05:37:24;31;24;
57289;PMS5003;43523;53.022;-1.178;2022-09-09T05:38:26;36;27;
57289;PMS5003;43523;53.022;-1.178;2022-09-09T05:39:28;38;27;
57289;PMS5003;43523;53.022;-1.178;2022-09-09T05:40:30;30;24;
57289;PMS5003;43523;53.022;-1.178;2022-09-09T05:41:32;33;29;
57289;PMS5003;43523;53.022;-1.178;2022-09-09T05:42:35;30;22;
57289;PMS5003;43523;53.022;-1.178;2022-09-09T05:43:37;35;27;
57289;PMS5003;43523;53.022;-1.178;2022-09-09T05:44:39;47;41;
57289;PMS5003;43523;53.022;-1.178;2022-09-09T05:45:42;34;26;
57289;PMS5003;43523;53.022;-1.178;2022-09-09T05:46:59;27;26;
57289;PMS5003;43523;53.022;-1.178;2022-09-09T05:48:01;28;23;
57289;PMS5003;43523;53.022;-1.178;2022-09-09T05:49:04;34;28;
57289;PMS5003;43523;53.022;-1.178;2022-09-09T05:50:06;45;33;
57289;PMS5003;43523;53.022;-1.178;2022-09-09T05:51:10;43;30;
57289;PMS5003;43523;53.022;-1.178;2022-09-09T05:52:19;52;38;
57289;PMS5003;43523;53.022;-1.178;2022-09-09T05:53:22;36;29;
57289;PMS5003;43523;53.022;-1.178;2022-09-09T05:54:26;38;31;
57289;PMS5003;43523;53.022;-1.178;2022-09-09T05:55:28;36;25;
57289;PMS5003;43523;53.022;-1.178;2022-09-09T05:56:30;46;35;
57289;PMS5003;43523;53.022;-1.178;2022-09-09T05:57:32;26;23;
57289;PMS5003;43523;53.022;-1.178;2022-09-09T05:58:34;38;28;
57289;PMS5003;43523;53.022;-1.178;2022-09-09T05:59:37;37;33;
57289;PMS5003;43523;53.022;-1.178;2022-09-09T06:00:39;46;36;
57289;PMS5003;43523;53.022;-1.178;2022-09-09T06:01:42;39;32;
57289;PMS5003;43523;53.022;-1.178;2022-09-09T06:02:50;30;26;
57289;PMS5003;43523;53.022;-1.178;2022-09-09T06:03:53;38;32;
57289;PMS5003;43523;53.022;-1.178;2022-09-09T06:04:55;33;25;
57289;PMS5003;43523;53.022;-1.178;2022-09-09T06:05:59;37;26;
57289;PMS5003;43523;53.022;-1.178;2022-09-09T06:07:04;40;32;
57289;PMS5003;43523;53.022;-1.178;2022-09-09T06:08:06;42;37;
57289;PMS5003;43523;53.022;-1.178;2022-09-09T06:09:09;32;27;
57289;PMS5003;43523;53.022;-1.178;2022-09-09T06:10:12;41;30;
57289;PMS5003;43523;53.022;-1.178;2022-09-09T06:11:15;25;24;
57289;PMS5003;43523;53.022;-1.178;2022-09-09T06:12:19;37;26;
57289;PMS5003;43523;53.022;-1.178;2022-09-09T06:13:22;36;26;
57289;PMS5003;43523;53.022;-1.178;2022-09-09T06:14:24;33;23;
57289;PMS5003;43523;53.022;-1.178;2022-09-09T06:15:26;34;29;
57289;PMS5003;43523;53.022;-1.178;2022-09-09T06:16:29;32;29;
57289;PMS5003;43523;53.022;-1.178;2022-09-09T06:17:32;31;25;
57289;PMS5003;43523;53.022;-1.178;2022-09-09T06:18:34;32;24;
57289;PMS5003;43523;53.022;-1.178;2022-09-09T06:19:36;29;25;
57289;PMS5003;43523;53.022;-1.178;2022-09-09T06:20:39;35;26;
57289;PMS5003;43523;53.022;-1.178;2022-09-09T06:21:42;46;34;
57289;PMS5003;43523;53.022;-1.178;2022-09-09T06:22:44;29;26;
57289;PMS5003;43523;53.022;-1.178;2022-09-09T06:23:47;45;37;
57289;PMS5003;43523;53.022;-1.178;2022-09-09T06:24:50;36;31;
57289;PMS5003;43523;53.022;-1.178;2022-09-09T06:26:00;35;27;
57289;PMS5003;43523;53.022;-1.178;2022-09-09T06:27:03;46;40;
57289;PMS5003;43523;53.022;-1.178;2022-09-09T06:28:06;37;32;
57289;PMS5003;43523;53.022;-1.178;2022-09-09T06:29:09;33;25;
57289;PMS5003;43523;53.022;-1.178;2022-09-09T06:30:17;43;35;
57289;PMS5003;43523;53.022;-1.178;2022-09-09T06:31:19;41;32;
57289;PMS5003;43523;53.022;-1.178;2022-09-09T06:32:23;34;28;
57289;PMS5003;43523;53.022;-1.178;2022-09-09T06:33:25;36;33;
57289;PMS5003;43523;53.022;-1.178;2022-09-09T06:34:28;41;26;
57289;PMS5003;43523;53.022;-1.178;2022-09-09T06:35:31;46;32;
57289;PMS5003;43523;53.022;-1.178;2022-09-09T06:36:34;30;22;
57289;PMS5003;43523;53.022;-1.178;2022-09-09T06:37:38;35;26;
57289;PMS5003;43523;53.022;-1.178;2022-09-09T06:38:40;55;39;
57289;PMS5003;43523;53.022;-1.178;2022-09-09T06:39:43;28;24;
57289;PMS5003;43523;53.022;-1.178;2022-09-09T06:40:50;33;29;
57289;PMS5003;43523;53.022;-1.178;2022-09-09T06:41:53;29;26;
57289;PMS5003;43523;53.022;-1.178;2022-09-09T06:42:59;34;29;
57289;PMS5003;43523;53.022;-1.178;2022-09-09T06:44:02;41;30;
57289;PMS5003;43523;53.022;-1.178;2022-09-09T06:45:04;43;31;
57289;PMS5003;43523;53.022;-1.178;2022-09-09T06:46:09;30;24;
57289;PMS5003;43523;53.022;-1.178;2022-09-09T06:47:13;38;33;
57289;PMS5003;43523;53.022;-1.178;2022-09-09T06:48:15;40;32;
57289;PMS5003;43523;53.022;-1.178;2022-09-09T06:49:18;53;43;
57289;PMS5003;43523;53.022;-1.178;2022-09-09T06:50:20;29;25;
57289;PMS5003;43523;53.022;-1.178;2022-09-09T06:51:23;42;30;
57289;PMS5003;43523;53.022;-1.178;2022-09-09T06:52:27;36;26;
57289;PMS5003;43523;53.022;-1.178;2022-09-09T06:53:29;48;41;
57289;PMS5003;43523;53.022;-1.178;2022-09-09T06:54:32;46;36;
57289;PMS5003;43523;53.022;-1.178;2022-09-09T06:55:34;54;38;
57289;PMS5003;43523;53.022;-1.178;2022-09-09T06:56:37;41;33;
57289;PMS5003;43523;53.022;-1.178;2022-09-09T06:57:39;45;36;
57289;PMS5003;43523;53.022;-1.178;2022-09-09T06:58:42;45;38;
57289;PMS5003;43523;53.022;-1.178;2022-09-09T06:59:46;37;33;
57289;PMS5003;43523;53.022;-1.178;2022-09-09T07:00:48;46;34;
57289;PMS5003;43523;53.022;-1.178;2022-09-09T07:01:50;58;43;
57289;PMS5003;43523;53.022;-1.178;2022-09-09T07:02:52;52;39;
57289;PMS5003;43523;53.022;-1.178;2022-09-09T07:03:55;44;38;
57289;PMS5003;43523;53.022;-1.178;2022-09-09T07:04:59;51;39;
57289;PMS5003;43523;53.022;-1.178;2022-09-09T07:06:01;56;44;